Time;durP1;ratioP1;P1;durP2;ratioP2;P2;SDS_P1;SDS_P2;PMS_P1;PMS_P2;Temp;Humidity;BMP_temperature;BMP_pressure;BME280_temperature;BME280_humidity;BME280_pressure;Samples;Min_cycle;Max_cycle;Signal;HPM_P1;HPM_P2
2022/05/06 00:00:24;;;;;;;19.80;13.18;;;13.60;77.20;;;;;;2060800;28;20039;-87
2022/05/06 00:01:24;;;;;;;21.15;13.00;;;13.60;77.30;;;;;;2065533;28;20037;-87
2022/05/06 00:02:25;;;;;;;19.17;12.80;;;13.60;77.40;;;;;;2062773;28;20050;-88
2022/05/06 00:03:27;;;;;;;19.40;12.52;;;13.60;77.40;;;;;;2077672;28;20029;-87
2022/05/06 00:04:27;;;;;;;19.83;12.88;;;13.60;77.50;;;;;;2077115;28;20040;-88
2022/05/06 00:05:30;;;;;;;20.80;13.32;;;13.60;77.60;;;;;;2079707;28;20075;-88
2022/05/06 00:06:32;;;;;;;18.60;12.82;;;13.60;77.60;;;;;;2081680;28;20044;-88
2022/05/06 00:07:33;;;;;;;20.63;13.20;;;13.60;78.30;;;;;;2079125;28;20026;-88
2022/05/06 00:08:35;;;;;;;19.33;12.48;;;13.60;77.70;;;;;;2067930;28;20108;-87
2022/05/06 00:09:36;;;;;;;20.55;12.93;;;13.60;77.70;;;;;;2065820;28;20561;-88
2022/05/06 00:10:37;;;;;;;18.98;12.90;;;13.60;78.40;;;;;;2069420;28;20031;-88
2022/05/06 00:11:37;;;;;;;21.17;13.15;;;13.60;77.80;;;;;;2072416;28;20038;-87
2022/05/06 00:12:39;;;;;;;21.70;13.95;;;13.60;77.90;;;;;;2072669;28;20060;-88
2022/05/06 00:13:39;;;;;;;21.15;13.93;;;13.60;77.90;;;;;;2071918;28;20073;-88
2022/05/06 00:14:40;;;;;;;19.58;12.68;;;13.50;77.90;;;;;;2080307;28;20034;-88
2022/05/06 00:15:40;;;;;;;22.08;13.77;;;13.60;78.00;;;;;;2072196;28;20068;-88
2022/05/06 00:16:41;;;;;;;18.77;12.85;;;13.50;78.10;;;;;;2064596;28;20117;-88
2022/05/06 00:17:42;;;;;;;22.63;13.85;;;13.50;78.20;;;;;;2073652;28;20029;-88
2022/05/06 00:18:42;;;;;;;21.98;13.77;;;13.50;78.20;;;;;;2077936;28;20489;-89
2022/05/06 00:19:43;;;;;;;25.77;13.93;;;13.50;78.30;;;;;;2073624;28;20034;-88
2022/05/06 00:20:43;;;;;;;21.63;14.02;;;13.40;78.30;;;;;;2081486;28;20116;-88
2022/05/06 00:21:44;;;;;;;23.05;14.18;;;13.40;78.30;;;;;;2081602;28;20029;-88
2022/05/06 00:22:45;;;;;;;20.35;14.27;;;13.40;78.40;;;;;;2079668;28;20415;-88
2022/05/06 00:23:45;;;;;;;22.02;14.10;;;13.40;78.50;;;;;;2072551;28;20053;-88
2022/05/06 00:24:46;;;;;;;22.10;13.60;;;13.40;79.30;;;;;;2072641;28;20395;-88
2022/05/06 00:25:47;;;;;;;21.02;13.82;;;13.40;78.70;;;;;;2070122;28;20037;-88
2022/05/06 00:26:47;;;;;;;20.92;13.98;;;13.30;78.70;;;;;;2078720;28;20534;-88
2022/05/06 00:27:48;;;;;;;21.00;14.25;;;13.30;78.80;;;;;;2081407;28;20119;-88
2022/05/06 00:28:48;;;;;;;22.77;14.77;;;13.30;79.00;;;;;;2075959;28;20095;-87
2022/05/06 00:29:49;;;;;;;20.10;13.45;;;13.30;79.00;;;;;;2073455;28;20026;-88
2022/05/06 00:30:50;;;;;;;22.50;14.55;;;13.30;79.10;;;;;;2077431;28;20093;-88
2022/05/06 00:31:51;;;;;;;20.83;13.98;;;13.20;79.00;;;;;;2080208;28;20403;-88
2022/05/06 00:32:52;;;;;;;22.40;14.43;;;13.20;79.10;;;;;;2076457;28;20036;-88
2022/05/06 00:33:52;;;;;;;22.35;14.60;;;13.20;79.20;;;;;;2074614;28;20133;-87
2022/05/06 00:34:55;;;;;;;20.70;14.40;;;13.20;79.30;;;;;;2078783;28;20033;-88
2022/05/06 00:35:57;;;;;;;20.25;13.10;;;13.20;79.40;;;;;;2070354;28;20045;-86
2022/05/06 00:36:58;;;;;;;20.25;13.60;;;13.20;79.40;;;;;;2069564;28;20018;-87
2022/05/06 00:37:59;;;;;;;21.60;13.70;;;13.20;79.50;;;;;;2080869;28;20021;-87
2022/05/06 00:38:59;;;;;;;21.95;14.57;;;13.20;79.60;;;;;;2081082;28;20484;-87
2022/05/06 00:40:00;;;;;;;21.70;14.45;;;13.20;79.60;;;;;;2077503;28;20103;-88
2022/05/06 00:41:00;;;;;;;20.15;14.18;;;13.20;79.70;;;;;;2067057;28;20022;-87
2022/05/06 00:42:01;;;;;;;23.02;14.93;;;13.10;79.70;;;;;;2070641;28;20084;-88
2022/05/06 00:43:02;;;;;;;23.00;14.93;;;13.10;79.80;;;;;;2074760;28;20396;-87
2022/05/06 00:44:06;;;;;;;22.48;14.95;;;13.10;79.80;;;;;;2065329;28;20026;-88
2022/05/06 00:45:07;;;;;;;21.25;14.07;;;13.10;80.00;;;;;;2060427;28;20030;-87
2022/05/06 00:46:13;;;;;;;22.42;14.85;;;13.00;80.00;;;;;;2044465;28;20055;-87
2022/05/06 00:47:16;;;;;;;22.20;14.38;;;13.00;80.10;;;;;;2060901;28;20033;-87
2022/05/06 00:48:17;;;;;;;23.05;15.07;;;13.10;80.20;;;;;;2080498;28;20028;-88
2022/05/06 00:49:19;;;;;;;22.63;14.98;;;13.00;80.20;;;;;;2071755;28;20026;-88
2022/05/06 00:50:20;;;;;;;22.02;15.18;;;13.00;80.40;;;;;;2078513;28;20036;-88
2022/05/06 00:51:20;;;;;;;22.13;14.30;;;13.00;80.40;;;;;;2081521;28;20069;-87
2022/05/06 00:52:21;;;;;;;23.80;15.15;;;13.00;80.50;;;;;;2079849;28;20040;-88
2022/05/06 00:53:22;;;;;;;22.42;14.55;;;13.00;80.50;;;;;;2073061;28;20026;-88
2022/05/06 00:54:23;;;;;;;21.85;14.40;;;12.90;80.60;;;;;;2078959;28;20036;-87
2022/05/06 00:55:24;;;;;;;20.98;13.85;;;12.90;80.60;;;;;;2077391;28;20049;-87
2022/05/06 00:56:25;;;;;;;21.20;13.90;;;12.90;80.70;;;;;;2063211;28;20492;-87
2022/05/06 00:57:27;;;;;;;21.38;14.30;;;12.90;81.50;;;;;;2062651;28;20034;-88
2022/05/06 00:58:30;;;;;;;21.75;14.52;;;12.90;80.90;;;;;;2067742;28;20033;-88
2022/05/06 00:59:30;;;;;;;20.08;13.38;;;12.90;81.00;;;;;;2070346;28;20025;-88
2022/05/06 01:00:31;;;;;;;23.45;14.57;;;12.90;81.10;;;;;;2069665;28;20058;-87
2022/05/06 01:01:31;;;;;;;19.80;13.80;;;12.90;81.20;;;;;;2081065;28;20472;-88
2022/05/06 01:02:33;;;;;;;22.73;14.25;;;12.90;81.20;;;;;;2052601;28;20564;-88
2022/05/06 01:03:33;;;;;;;22.90;14.45;;;12.80;81.20;;;;;;2064210;28;20042;-88
2022/05/06 01:04:34;;;;;;;22.35;14.07;;;12.80;81.20;;;;;;2063146;28;20022;-87
2022/05/06 01:05:35;;;;;;;22.27;14.60;;;12.80;81.20;;;;;;2069667;28;20030;-88
2022/05/06 01:06:36;;;;;;;24.17;15.68;;;12.80;81.30;;;;;;2078180;28;20053;-87
2022/05/06 01:07:37;;;;;;;23.80;15.50;;;12.80;81.30;;;;;;2064919;28;20033;-88
2022/05/06 01:08:38;;;;;;;24.83;15.95;;;12.90;81.40;;;;;;2056461;28;20069;-87
2022/05/06 01:09:39;;;;;;;22.63;15.57;;;12.90;81.50;;;;;;2064998;28;20432;-88
2022/05/06 01:10:41;;;;;;;23.25;15.50;;;12.80;81.40;;;;;;2060826;28;20034;-87
2022/05/06 01:11:42;;;;;;;22.15;15.23;;;12.80;81.50;;;;;;2078307;28;20045;-88
2022/05/06 01:12:43;;;;;;;24.27;15.73;;;12.80;81.50;;;;;;2083863;28;20045;-87
2022/05/06 01:13:45;;;;;;;23.00;15.43;;;12.80;82.20;;;;;;2086189;28;20025;-87
2022/05/06 01:14:46;;;;;;;23.05;15.52;;;12.80;81.60;;;;;;2063733;28;20030;-87
2022/05/06 01:15:48;;;;;;;23.45;15.38;;;12.80;81.70;;;;;;2063971;28;20397;-88
2022/05/06 01:16:48;;;;;;;24.85;15.90;;;12.80;81.70;;;;;;2072412;28;20025;-87
2022/05/06 01:17:51;;;;;;;22.08;15.10;;;12.80;81.80;;;;;;2072993;28;20025;-87
2022/05/06 01:18:52;;;;;;;22.45;15.40;;;12.80;81.80;;;;;;2077349;28;20385;-87
2022/05/06 01:19:52;;;;;;;24.15;16.00;;;12.80;81.80;;;;;;2089718;28;20071;-88
2022/05/06 01:20:58;;;;;;;23.63;16.05;;;12.80;81.80;;;;;;2075710;28;20550;-88
2022/05/06 01:21:58;;;;;;;25.42;16.38;;;12.80;81.90;;;;;;2072950;28;20019;-88
2022/05/06 01:23:00;;;;;;;23.25;15.70;;;12.70;81.80;;;;;;2064717;28;20030;-87
2022/05/06 01:24:01;;;;;;;24.25;15.65;;;12.70;81.80;;;;;;2061954;28;20041;-87
2022/05/06 01:25:02;;;;;;;24.88;15.73;;;12.70;82.00;;;;;;2073366;28;20100;-88
2022/05/06 01:26:03;;;;;;;25.25;16.70;;;12.70;82.00;;;;;;2076847;28;20127;-88
2022/05/06 01:27:14;;;;;;;24.25;15.88;;;12.70;82.00;;;;;;2078481;28;20040;-88
2022/05/06 01:28:16;;;;;;;23.77;15.32;;;12.70;82.10;;;;;;2073185;28;20216;-88
2022/05/06 01:29:17;;;;;;;24.15;16.38;;;12.70;82.10;;;;;;2070017;28;20026;-86
2022/05/06 01:30:36;;;;;;;22.75;15.07;;;12.60;82.10;;;;;;2076270;28;20091;-87
2022/05/06 01:31:37;;;;;;;23.77;16.05;;;12.60;82.20;;;;;;2089808;28;20033;-86
2022/05/06 01:32:39;;;;;;;23.90;15.43;;;12.60;82.30;;;;;;2086357;28;20026;-87
2022/05/06 01:33:41;;;;;;;24.45;15.65;;;12.60;82.20;;;;;;2073791;28;20030;-87
2022/05/06 01:34:42;;;;;;;22.75;14.65;;;12.60;82.40;;;;;;2073225;28;20032;-88
2022/05/06 01:35:55;;;;;;;23.00;15.05;;;12.60;82.40;;;;;;2079710;28;20030;-88
2022/05/06 01:37:01;;;;;;;23.65;15.20;;;12.50;82.40;;;;;;2089195;28;20028;-87
2022/05/06 01:38:04;;;;;;;23.63;15.52;;;12.50;82.50;;;;;;2088209;28;20029;-87
2022/05/06 01:39:06;;;;;;;23.55;15.38;;;12.50;82.50;;;;;;2086141;28;20029;-87
2022/05/06 01:40:08;;;;;;;23.50;16.30;;;12.50;82.50;;;;;;2082762;28;20033;-88
2022/05/06 01:41:21;;;;;;;22.27;15.43;;;12.50;82.50;;;;;;2068052;28;20065;-87
2022/05/06 01:42:23;;;;;;;22.00;14.95;;;12.50;82.50;;;;;;2070809;28;20033;-87
2022/05/06 01:43:25;;;;;;;23.90;15.80;;;12.60;82.60;;;;;;2087273;28;20037;-88
2022/05/06 01:44:30;;;;;;;24.13;15.73;;;12.50;82.50;;;;;;2074561;28;20365;-87
2022/05/06 01:45:34;;;;;;;24.40;16.05;;;12.50;82.60;;;;;;2076979;28;20215;-87
2022/05/06 01:46:36;;;;;;;23.48;15.02;;;12.50;82.70;;;;;;2077930;28;20025;-87
2022/05/06 01:47:38;;;;;;;23.17;15.23;;;12.50;82.70;;;;;;2075991;28;20060;-88
2022/05/06 01:48:39;;;;;;;24.70;15.77;;;12.50;82.80;;;;;;2080506;28;20108;-88
2022/05/06 01:49:40;;;;;;;22.90;15.48;;;12.50;82.80;;;;;;2081073;28;20033;-88
2022/05/06 01:50:42;;;;;;;24.48;16.25;;;12.40;82.80;;;;;;2078063;28;20511;-88
2022/05/06 01:51:43;;;;;;;25.27;15.45;;;12.40;82.90;;;;;;2057377;28;20593;-88
2022/05/06 01:52:47;;;;;;;24.70;16.10;;;12.40;82.90;;;;;;2065642;28;20033;-87
2022/05/06 01:53:49;;;;;;;24.13;15.27;;;12.40;83.00;;;;;;2083310;28;20056;-87
2022/05/06 01:54:50;;;;;;;22.27;14.77;;;12.30;83.10;;;;;;2081799;28;20392;-87
2022/05/06 01:55:51;;;;;;;24.13;15.35;;;12.30;83.10;;;;;;2088086;28;20025;-86
2022/05/06 01:56:52;;;;;;;23.52;15.25;;;12.30;83.20;;;;;;2079587;28;20061;-87
2022/05/06 01:57:52;;;;;;;22.85;15.35;;;12.30;83.20;;;;;;2080778;28;20041;-87
2022/05/06 01:58:54;;;;;;;24.67;16.00;;;12.30;83.20;;;;;;2086805;28;20487;-87
2022/05/06 01:59:54;;;;;;;23.02;15.43;;;12.30;83.20;;;;;;2089167;28;20545;-87
2022/05/06 02:00:55;;;;;;;22.85;15.38;;;12.30;83.20;;;;;;2085503;28;20029;-88
2022/05/06 02:01:56;;;;;;;24.83;15.38;;;12.30;83.20;;;;;;2075293;28;20393;-87
2022/05/06 02:02:57;;;;;;;26.30;16.65;;;12.30;83.30;;;;;;2080216;28;20075;-87
2022/05/06 02:05:17;;;;;;;25.75;16.27;;;12.30;83.30;;;;;;2082036;28;20056;-88
2022/05/06 02:06:17;;;;;;;23.88;15.57;;;12.30;83.30;;;;;;2086920;28;20100;-88
2022/05/06 02:07:18;;;;;;;26.83;17.23;;;12.30;83.50;;;;;;2086579;28;20030;-87
2022/05/06 02:08:18;;;;;;;23.67;16.20;;;12.30;83.60;;;;;;2085234;28;20079;-87
2022/05/06 02:09:19;;;;;;;27.05;17.17;;;12.20;83.70;;;;;;2076440;28;20104;-87
2022/05/06 02:10:21;;;;;;;27.48;17.25;;;12.20;83.80;;;;;;2065842;28;20042;-86
2022/05/06 02:11:22;;;;;;;27.35;17.58;;;12.20;83.90;;;;;;2071509;28;20064;-89
2022/05/06 02:12:23;;;;;;;27.17;17.23;;;12.20;84.00;;;;;;2078932;28;20083;-87
2022/05/06 02:13:24;;;;;;;29.92;18.42;;;12.20;84.10;;;;;;2079764;28;20029;-87
2022/05/06 02:14:24;;;;;;;29.95;18.55;;;12.20;84.20;;;;;;2085895;28;20101;-88
2022/05/06 02:15:25;;;;;;;28.45;17.80;;;12.20;84.50;;;;;;2083302;28;20068;-87
2022/05/06 02:16:27;;;;;;;30.55;18.35;;;12.20;84.40;;;;;;2087385;28;20033;-87
2022/05/06 02:17:27;;;;;;;27.35;18.17;;;12.20;84.50;;;;;;2085202;28;20030;-88
2022/05/06 02:18:29;;;;;;;28.40;18.05;;;12.20;84.60;;;;;;2078852;28;20516;-87
2022/05/06 02:19:29;;;;;;;27.30;17.27;;;12.20;84.70;;;;;;2068038;28;20092;-87
2022/05/06 02:20:30;;;;;;;27.10;17.20;;;12.20;84.70;;;;;;2076331;28;20030;-88
2022/05/06 02:21:31;;;;;;;27.05;17.50;;;12.20;84.70;;;;;;2079645;28;20029;-88
2022/05/06 02:22:32;;;;;;;28.52;17.27;;;12.10;84.70;;;;;;2067959;28;20030;-87
2022/05/06 02:23:32;;;;;;;27.38;17.23;;;12.20;84.80;;;;;;2079786;28;20056;-88
2022/05/06 02:24:33;;;;;;;24.70;16.60;;;12.10;84.90;;;;;;2084477;28;20036;-88
2022/05/06 02:25:35;;;;;;;24.58;16.40;;;12.10;85.00;;;;;;2085003;28;20029;-87
2022/05/06 02:26:36;;;;;;;27.13;16.88;;;12.10;85.10;;;;;;2074072;28;20034;-87
2022/05/06 02:27:37;;;;;;;24.17;16.80;;;12.00;85.10;;;;;;2063521;28;20049;-88
2022/05/06 02:28:38;;;;;;;24.83;16.08;;;12.00;85.20;;;;;;2072911;28;20042;-88
2022/05/06 02:33:12;;;;;;;24.70;16.92;;;12.00;85.30;;;;;;2089706;28;20029;-87
2022/05/06 02:33:38;;;;;;;22.23;14.68;;;11.80;85.50;;;;;;2087922;28;20502;-87
2022/05/06 02:34:39;;;;;;;22.30;15.07;;;11.80;85.50;;;;;;2082442;28;20037;-87
2022/05/06 02:35:46;;;;;;;21.48;14.50;;;11.80;85.50;;;;;;2078978;28;20030;-87
2022/05/06 02:36:48;;;;;;;21.08;14.63;;;11.80;85.70;;;;;;2079933;28;20140;-88
2022/05/06 02:37:48;;;;;;;21.02;14.20;;;11.80;85.70;;;;;;2081853;28;20110;-87
2022/05/06 02:38:49;;;;;;;20.92;14.85;;;11.80;85.70;;;;;;2091111;28;20037;-88
2022/05/06 02:39:49;;;;;;;21.38;15.20;;;11.90;85.80;;;;;;2082350;28;20041;-88
2022/05/06 02:40:50;;;;;;;20.88;14.38;;;11.80;85.80;;;;;;2065003;28;20124;-88
2022/05/06 02:41:51;;;;;;;21.60;14.93;;;11.90;85.90;;;;;;2065236;28;20030;-87
2022/05/06 02:42:52;;;;;;;20.52;14.10;;;11.80;86.40;;;;;;2065491;28;20053;-88
2022/05/06 02:43:52;;;;;;;20.58;14.52;;;11.80;85.80;;;;;;2064102;28;20039;-87
2022/05/06 02:44:53;;;;;;;20.00;13.85;;;11.80;85.90;;;;;;2066155;28;20027;-87
2022/05/06 02:45:53;;;;;;;19.08;14.60;;;11.80;85.90;;;;;;2070177;28;20133;-88
2022/05/06 02:46:54;;;;;;;19.35;13.32;;;11.80;85.90;;;;;;2076933;28;20026;-87
2022/05/06 02:47:54;;;;;;;18.60;13.73;;;11.80;85.90;;;;;;2062964;28;20210;-88
2022/05/06 02:48:55;;;;;;;20.75;14.52;;;11.80;85.90;;;;;;2063040;28;20560;-87
2022/05/06 02:49:56;;;;;;;19.33;13.95;;;11.80;85.90;;;;;;2083875;28;20076;-87
2022/05/06 02:50:56;;;;;;;20.52;13.98;;;11.80;85.90;;;;;;2074219;28;20072;-88
2022/05/06 02:51:57;;;;;;;18.70;14.02;;;11.80;85.90;;;;;;2060063;28;20062;-87
2022/05/06 02:52:58;;;;;;;18.92;13.18;;;11.80;86.60;;;;;;2041501;29;20100;-87
2022/05/06 02:53:59;;;;;;;17.80;13.02;;;11.70;86.00;;;;;;2066308;28;20062;-86
2022/05/06 02:55:00;;;;;;;17.40;13.52;;;11.70;86.10;;;;;;2082108;28;20107;-87
2022/05/06 02:56:00;;;;;;;17.33;13.05;;;11.60;86.20;;;;;;2077703;28;20042;-87
2022/05/06 02:57:02;;;;;;;17.38;12.90;;;11.60;86.40;;;;;;2067486;28;20025;-87
2022/05/06 02:58:03;;;;;;;16.92;12.95;;;11.60;86.50;;;;;;2074642;28;20084;-87
2022/05/06 02:59:05;;;;;;;18.48;13.15;;;11.60;86.50;;;;;;2077809;28;20607;-87
2022/05/06 03:00:07;;;;;;;16.77;12.15;;;11.60;86.50;;;;;;2072035;28;20029;-87
2022/05/06 03:01:07;;;;;;;18.48;13.27;;;11.50;86.50;;;;;;2070067;28;20523;-87
2022/05/06 03:02:08;;;;;;;15.60;12.40;;;11.50;86.50;;;;;;2058416;28;20034;-87
2022/05/06 03:03:09;;;;;;;15.55;12.20;;;11.50;86.50;;;;;;2065787;28;20105;-88
2022/05/06 03:04:12;;;;;;;16.23;12.65;;;11.50;86.50;;;;;;2073543;28;20029;-87
2022/05/06 03:05:13;;;;;;;17.42;12.90;;;11.50;87.20;;;;;;2082324;28;20518;-87
2022/05/06 03:06:13;;;;;;;15.73;12.30;;;11.50;86.50;;;;;;2091041;28;20021;-87
2022/05/06 03:07:14;;;;;;;15.80;12.02;;;11.50;86.50;;;;;;2077864;28;20053;-87
2022/05/06 03:08:14;;;;;;;15.15;11.73;;;11.50;86.50;;;;;;2081895;28;20041;-87
2022/05/06 03:09:15;;;;;;;15.63;11.63;;;11.50;86.50;;;;;;2086418;28;20155;-87
2022/05/06 03:10:16;;;;;;;15.70;11.85;;;11.40;86.50;;;;;;2086267;28;20443;-87
2022/05/06 03:11:16;;;;;;;15.35;11.80;;;11.40;86.50;;;;;;2087916;28;20048;-87
2022/05/06 03:12:17;;;;;;;14.20;11.20;;;11.40;86.50;;;;;;2088412;28;20036;-87
2022/05/06 03:13:18;;;;;;;15.68;11.95;;;11.40;86.50;;;;;;2087505;28;20506;-88
2022/05/06 03:14:18;;;;;;;13.30;10.63;;;11.30;86.60;;;;;;2085612;28;20025;-87
2022/05/06 03:15:19;;;;;;;14.02;11.05;;;11.30;86.70;;;;;;2085780;28;20119;-87
2022/05/06 03:16:20;;;;;;;15.40;10.95;;;11.30;86.70;;;;;;2084027;28;20554;-87
2022/05/06 03:17:20;;;;;;;14.30;11.43;;;11.30;86.70;;;;;;2086967;28;20108;-87
2022/05/06 03:18:21;;;;;;;15.18;11.20;;;11.30;86.70;;;;;;2089835;28;20398;-87
2022/05/06 03:19:22;;;;;;;14.50;11.32;;;11.30;86.70;;;;;;2073764;28;20080;-88
2022/05/06 03:20:22;;;;;;;13.63;11.13;;;11.30;86.70;;;;;;2074114;28;20412;-87
2022/05/06 03:21:23;;;;;;;15.15;10.93;;;11.30;86.70;;;;;;2081449;28;20036;-88
2022/05/06 03:22:24;;;;;;;14.40;10.80;;;11.30;86.70;;;;;;2069572;28;20040;-87
2022/05/06 03:23:26;;;;;;;14.25;10.80;;;11.20;86.60;;;;;;2080607;28;20395;-87
2022/05/06 03:24:27;;;;;;;14.55;10.98;;;11.30;86.60;;;;;;2089524;28;20036;-88
2022/05/06 03:25:27;;;;;;;14.38;10.93;;;11.30;86.60;;;;;;2080864;28;20053;-87
2022/05/06 03:26:28;;;;;;;14.27;10.82;;;11.20;86.50;;;;;;2084158;28;20053;-88
2022/05/06 03:28:48;;;;;;;12.10;9.70;;;11.20;86.60;;;;;;2070481;28;20030;-87
2022/05/06 03:29:49;;;;;;;13.45;10.48;;;11.20;86.50;;;;;;2076312;28;20065;-88
2022/05/06 03:30:50;;;;;;;14.65;10.80;;;11.20;86.50;;;;;;2073388;28;20574;-87
2022/05/06 03:31:54;;;;;;;14.05;10.63;;;11.20;86.50;;;;;;2070799;28;20073;-87
2022/05/06 03:32:55;;;;;;;12.98;9.82;;;11.20;86.50;;;;;;2071819;28;20574;-87
2022/05/06 03:33:55;;;;;;;12.82;10.43;;;11.10;86.40;;;;;;2077494;28;20034;-87
2022/05/06 03:34:56;;;;;;;14.88;11.13;;;11.10;86.50;;;;;;2062133;28;20076;-87
2022/05/06 03:35:57;;;;;;;13.20;10.05;;;11.10;86.50;;;;;;2065247;28;20070;-87
2022/05/06 03:36:57;;;;;;;13.45;10.32;;;11.10;86.50;;;;;;2081471;28;20018;-87
2022/05/06 03:37:58;;;;;;;13.35;10.20;;;11.10;86.60;;;;;;2057141;28;20027;-86
2022/05/06 03:38:59;;;;;;;13.43;10.35;;;11.10;86.60;;;;;;2064904;28;20033;-86
2022/05/06 03:40:00;;;;;;;13.43;10.30;;;11.10;86.60;;;;;;2073676;28;20034;-87
2022/05/06 03:41:00;;;;;;;12.65;9.57;;;11.10;86.60;;;;;;2078874;28;20128;-87
2022/05/06 03:42:01;;;;;;;14.05;10.55;;;11.00;86.60;;;;;;2078352;28;20484;-86
2022/05/06 03:43:02;;;;;;;14.30;10.77;;;11.00;86.60;;;;;;2081522;28;20029;-86
2022/05/06 03:44:03;;;;;;;14.48;10.70;;;11.00;86.70;;;;;;2078666;28;20558;-87
2022/05/06 03:45:06;;;;;;;13.25;9.88;;;11.00;86.70;;;;;;2083256;28;20049;-87
2022/05/06 03:46:07;;;;;;;12.55;9.57;;;11.00;86.70;;;;;;2085976;28;20026;-87
2022/05/06 03:47:07;;;;;;;13.82;10.35;;;11.00;86.80;;;;;;2073447;28;20030;-87
2022/05/06 03:48:08;;;;;;;13.85;10.40;;;11.00;87.40;;;;;;2072480;28;20029;-87
2022/05/06 03:49:09;;;;;;;12.77;10.07;;;11.00;86.70;;;;;;2079131;28;20021;-87
2022/05/06 03:51:29;;;;;;;11.48;9.00;;;11.00;86.70;;;;;;2089212;28;20129;-87
2022/05/06 03:52:30;;;;;;;13.40;10.02;;;10.90;86.60;;;;;;2088365;28;20066;-86
2022/05/06 03:53:31;;;;;;;12.65;9.60;;;10.90;86.60;;;;;;2079925;28;20607;-87
2022/05/06 03:54:33;;;;;;;12.93;10.00;;;10.90;86.50;;;;;;2078500;28;20033;-88
2022/05/06 03:55:33;;;;;;;12.38;9.68;;;10.90;86.50;;;;;;2085187;28;20056;-88
2022/05/06 03:56:34;;;;;;;12.13;9.50;;;10.90;86.50;;;;;;2074928;28;20459;-87
2022/05/06 03:57:35;;;;;;;11.95;9.25;;;10.90;87.10;;;;;;2059766;28;20516;-88
2022/05/06 03:58:36;;;;;;;13.15;9.57;;;10.90;86.60;;;;;;2074355;28;20040;-88
2022/05/06 03:59:36;;;;;;;12.52;10.00;;;10.90;86.60;;;;;;2083537;28;20400;-88
2022/05/06 04:00:37;;;;;;;12.98;9.80;;;10.90;86.60;;;;;;2079304;28;20483;-88
2022/05/06 04:01:38;;;;;;;11.75;9.35;;;10.90;86.60;;;;;;2075096;28;20045;-87
2022/05/06 04:02:38;;;;;;;13.07;10.02;;;10.90;86.60;;;;;;2072392;28;20065;-87
2022/05/06 04:03:39;;;;;;;12.40;9.43;;;10.80;86.60;;;;;;2065224;28;20038;-87
2022/05/06 04:04:39;;;;;;;12.45;9.13;;;10.80;86.70;;;;;;2075677;28;20026;-88
2022/05/06 04:05:41;;;;;;;12.48;9.20;;;10.80;86.70;;;;;;2062680;28;20520;-88
2022/05/06 04:06:42;;;;;;;12.25;9.52;;;10.90;87.40;;;;;;2065079;28;20069;-88
2022/05/06 04:07:43;;;;;;;11.70;9.00;;;10.80;87.40;;;;;;2065294;28;20026;-88
2022/05/06 04:08:43;;;;;;;12.25;9.68;;;10.80;86.80;;;;;;2067867;28;20068;-88
2022/05/06 04:09:44;;;;;;;11.88;9.32;;;10.80;86.80;;;;;;2083744;28;20437;-88
2022/05/06 04:10:45;;;;;;;11.82;9.32;;;10.80;86.80;;;;;;2078304;28;20033;-88
2022/05/06 04:11:45;;;;;;;12.75;9.15;;;10.80;86.80;;;;;;2067285;28;20045;-88
2022/05/06 04:12:46;;;;;;;12.35;9.35;;;10.80;86.80;;;;;;2080364;28;20446;-88
2022/05/06 04:13:47;;;;;;;11.55;8.90;;;10.80;86.80;;;;;;2087391;28;20059;-88
2022/05/06 04:14:48;;;;;;;11.60;8.52;;;10.80;86.80;;;;;;2082485;28;20084;-88
2022/05/06 04:15:50;;;;;;;11.35;8.82;;;10.80;87.50;;;;;;2076834;28;20407;-88
2022/05/06 04:16:50;;;;;;;11.73;8.82;;;10.80;86.80;;;;;;2072917;28;20149;-88
2022/05/06 04:17:51;;;;;;;11.63;8.98;;;10.80;86.80;;;;;;2070286;28;20041;-88
2022/05/06 04:18:51;;;;;;;11.60;9.10;;;10.80;86.80;;;;;;2069494;28;20024;-88
2022/05/06 04:23:50;;;;;;;10.40;7.90;;;10.70;86.80;;;;;;2068488;28;20072;-88
2022/05/06 04:24:51;;;;;;;11.48;8.35;;;10.70;86.80;;;;;;2077660;28;20312;-88
2022/05/06 04:25:52;;;;;;;10.38;8.20;;;10.70;86.80;;;;;;2079188;28;20029;-88
2022/05/06 04:26:52;;;;;;;10.65;8.05;;;10.70;86.80;;;;;;2080256;28;20037;-88
2022/05/06 04:27:53;;;;;;;11.88;8.80;;;10.70;86.80;;;;;;2077764;28;20509;-88
2022/05/06 04:28:54;;;;;;;11.88;8.88;;;10.70;86.80;;;;;;2077201;28;20026;-87
2022/05/06 04:29:54;;;;;;;10.73;8.55;;;10.70;86.80;;;;;;2065441;28;20073;-88
2022/05/06 04:30:55;;;;;;;11.52;9.18;;;10.70;86.80;;;;;;2080562;28;20029;-88
2022/05/06 04:31:56;;;;;;;11.55;8.70;;;10.70;86.80;;;;;;2078053;28;20515;-88
2022/05/06 04:32:56;;;;;;;9.90;7.90;;;10.70;86.80;;;;;;2073650;28;20033;-88
2022/05/06 04:33:57;;;;;;;12.65;9.18;;;10.70;86.80;;;;;;2077735;28;20026;-88
2022/05/06 04:34:58;;;;;;;10.30;7.90;;;10.70;86.90;;;;;;2080737;28;20037;-88
2022/05/06 04:35:59;;;;;;;11.43;8.68;;;10.70;86.90;;;;;;2073094;28;20026;-88
2022/05/06 04:37:00;;;;;;;11.23;8.35;;;10.70;86.90;;;;;;2080648;28;20120;-88
2022/05/06 04:38:00;;;;;;;11.75;9.00;;;10.70;86.90;;;;;;2081319;28;20060;-88
2022/05/06 04:39:01;;;;;;;11.77;8.45;;;10.70;86.80;;;;;;2075506;28;20044;-88
2022/05/06 04:40:03;;;;;;;11.70;8.68;;;10.70;86.90;;;;;;2079197;28;20029;-87
2022/05/06 04:41:04;;;;;;;10.68;8.10;;;10.70;86.90;;;;;;2079840;28;20444;-87
2022/05/06 04:42:05;;;;;;;10.95;8.25;;;10.70;86.80;;;;;;2077902;28;20037;-88
2022/05/06 04:43:06;;;;;;;11.25;8.38;;;10.70;86.90;;;;;;2079991;28;20040;-88
2022/05/06 04:44:07;;;;;;;10.23;7.93;;;10.70;86.90;;;;;;2078458;28;20036;-88
2022/05/06 04:45:08;;;;;;;9.48;7.70;;;10.80;87.60;;;;;;2074647;28;20165;-88
2022/05/06 04:46:08;;;;;;;10.63;7.43;;;10.80;87.00;;;;;;2081101;28;20029;-87
2022/05/06 04:47:09;;;;;;;11.13;8.70;;;10.80;87.00;;;;;;2080528;28;20120;-88
2022/05/06 04:48:11;;;;;;;9.88;7.75;;;10.80;86.90;;;;;;2073767;28;20049;-88
2022/05/06 04:49:12;;;;;;;10.40;8.27;;;10.70;86.90;;;;;;2073444;28;20475;-88
2022/05/06 04:50:13;;;;;;;11.73;8.40;;;10.80;86.90;;;;;;2069636;28;20022;-87
2022/05/06 04:51:13;;;;;;;10.20;8.27;;;10.80;86.90;;;;;;2071661;28;20037;-88
2022/05/06 04:52:14;;;;;;;10.88;8.43;;;10.70;86.80;;;;;;2074875;28;20037;-88
2022/05/06 04:53:15;;;;;;;9.93;8.07;;;10.80;87.00;;;;;;2080659;28;20029;-88
2022/05/06 04:54:16;;;;;;;10.35;7.88;;;10.80;87.00;;;;;;2073682;28;20038;-88
2022/05/06 04:55:16;;;;;;;10.63;8.05;;;10.80;87.10;;;;;;2071560;28;20030;-87
2022/05/06 04:56:17;;;;;;;9.80;7.85;;;10.80;87.10;;;;;;2076591;28;20196;-88
2022/05/06 04:57:17;;;;;;;10.75;7.93;;;10.80;87.10;;;;;;2070319;28;20053;-88
2022/05/06 04:58:19;;;;;;;10.52;8.48;;;10.80;87.20;;;;;;2065110;28;20030;-87
2022/05/06 04:59:22;;;;;;;9.80;7.47;;;10.70;87.10;;;;;;2076548;28;20021;-88
2022/05/06 05:00:22;;;;;;;10.38;8.05;;;10.70;87.20;;;;;;2078409;28;20496;-88
2022/05/06 05:01:23;;;;;;;10.40;8.15;;;10.70;87.70;;;;;;2080575;28;20057;-88
2022/05/06 05:02:26;;;;;;;10.18;7.85;;;10.80;87.20;;;;;;2072464;28;20033;-87
2022/05/06 05:03:26;;;;;;;10.98;8.52;;;10.70;87.20;;;;;;2071385;28;20029;-88
2022/05/06 05:04:28;;;;;;;11.15;8.38;;;10.80;87.20;;;;;;2065375;28;20500;-89
2022/05/06 05:05:29;;;;;;;11.65;8.77;;;10.80;87.20;;;;;;2079817;28;20042;-90
2022/05/06 05:06:31;;;;;;;10.50;7.85;;;10.70;87.20;;;;;;2081114;28;20025;-88
2022/05/06 05:07:31;;;;;;;9.45;7.72;;;10.80;87.30;;;;;;2080611;28;20033;-88
2022/05/06 05:08:32;;;;;;;9.30;7.25;;;10.80;87.40;;;;;;2080293;28;20021;-88
2022/05/06 05:09:33;;;;;;;9.52;7.80;;;10.80;87.40;;;;;;2072871;28;20540;-88
2022/05/06 05:10:34;;;;;;;10.05;7.93;;;10.80;87.50;;;;;;2067566;28;20033;-88
2022/05/06 05:11:36;;;;;;;9.93;7.78;;;10.80;87.40;;;;;;2078200;28;20045;-88
2022/05/06 05:12:37;;;;;;;10.07;8.05;;;10.70;87.40;;;;;;2079159;28;20530;-87
2022/05/06 05:13:41;;;;;;;11.02;8.32;;;10.80;87.40;;;;;;2084432;28;20030;-89
2022/05/06 05:14:42;;;;;;;9.50;7.53;;;10.80;87.50;;;;;;2074879;28;20061;-88
2022/05/06 05:15:42;;;;;;;10.48;8.07;;;10.80;87.50;;;;;;2069306;28;20571;-89
2022/05/06 05:16:43;;;;;;;9.80;7.75;;;10.80;87.50;;;;;;2066708;28;20117;-88
2022/05/06 05:17:47;;;;;;;9.98;7.57;;;10.80;87.60;;;;;;2077549;28;20108;-89
2022/05/06 05:18:48;;;;;;;10.85;8.52;;;10.80;87.60;;;;;;2087686;28;20037;-88
2022/05/06 05:19:49;;;;;;;10.85;8.23;;;10.80;87.60;;;;;;2078647;28;20491;-87
2022/05/06 05:20:51;;;;;;;11.07;8.07;;;10.80;87.50;;;;;;2071010;28;20054;-88
2022/05/06 05:21:51;;;;;;;12.57;8.02;;;10.80;87.60;;;;;;2072078;28;20113;-89
2022/05/06 05:22:52;;;;;;;9.95;8.00;;;10.80;87.60;;;;;;2070589;28;20092;-88